Terminal Aerodrome Forecast
Issued by NWS

Home | Current Version | Previous Version | Text Only | Print | Product List | Glossary On
Versions: 1 2 3 4 5 6 7 8 9 10 11 12 13
000
FTUS44 KEPZ 181353 AAA
TAFDMN
TAF AMD
KDMN 181353Z 1814/1912 06007KT P6SM VCSH BKN008 BKN040
      TEMPO 1816/1820 SCT010 BKN040
     FM182000 VRB04KT P6SM VCSH SCT030 BKN060
     FM190600 25006KT P6SM FEW020 BKN100=

USA.gov is the U.S. government's official web portal to all federal, state and local government web resources and services.